Buena Vista, CO

4:28 PM MST on February 10, 2016 (GMT -0700)
RAWS | | Change Station
CLOSE
Current Station
Personal Weather Station
Location: Fairplay, CO
Elevation: 9515 ft
Nearby Weather Stations

Elev 9515 ft 39.04 °N, 106.00 °W | Updated 1 hour ago

Clear
Clear
51.0 °F
Feels Like 51.0 °F
N
9.0
Wind Variable Wind from NW
Gusts 20.0 mph

Today
High -- | Low -- °F
--% Chance of Precip.
Yesterday
High -- | Low -- °F
Precip. -- in
Pressure 30.23 in
Visibility 10.0 miles
Clouds Clear
Dew Point 0.0 °F
Humidity 12%
Rainfall in
Snow Depth Not available.
7:01 AM 5:35 PM
Waxing Crescent, 8% visible
METAR KLXV 102253Z AUTO 31017KT 10SM CLR 05/M16 A3037 RMK AO2 SLP235 T00501161
Pressure 30.23 in
Visibility 10.0 miles
Clouds Clear
Dew Point 0.0 °F
Humidity 12%
Rainfall in
Snow Depth Not available.
7:01 AM 5:35 PM
Waxing Crescent, 8% visible
METAR KLXV 102253Z AUTO 31017KT 10SM CLR 05/M16 A3037 RMK AO2 SLP235 T00501161

10-Day Weather Forecast

Almanac

Astronomy

Feb. 10, 2016 Rise Set
Actual Time
Civil Twilight
Nautical Twilight
Astronomical Twilight
Moon
Length of Visible Light
Length of Day
Tomorrow will be .
, % of the Moon is Illuminated

Today's Extremes

State Highs State Lows

Community

WunderPhotos

Upload Photos

1,891,935 photos uploaded!

WunderBlog® & News

Nearby

Air Quality

  Air Quality AQ Index Pollutant
Not available.

Snow Depth

Station Depth Elevation

Earthquake Activity

City Distance Mag. Time & Date
Minimum magnitude displayed is 2.5.

Coastal Water Temperatures

Place Temperature

Stations

Nearby Weather Stations

Station Location Temp. Windchill Dew Point Humidity Wind Precip. Elev Updated Type
                   

Watches & Warnings

There are currently no watches in effect.